createdAt,value
2022-09-28T00:00:01.105Z,1.38
2022-09-28T00:00:33.095Z,1.30
2022-09-28T00:01:15.735Z,2.00
2022-09-28T00:01:47.428Z,1.27
2022-09-28T00:02:19.352Z,1.20
2022-09-28T00:02:51.279Z,1.33
2022-09-28T00:03:22.931Z,1.40
2022-09-28T00:03:59.855Z,1.25
2022-09-28T00:04:33.207Z,1.20
2022-09-28T00:05:06.201Z,1.05
2022-09-28T00:05:37.701Z,1.42
2022-09-28T00:06:12.405Z,1.20
2022-09-28T00:06:44.196Z,1.20
2022-09-28T00:07:15.696Z,1.30
2022-09-28T00:07:47.207Z,1.38
2022-09-28T00:08:18.710Z,1.30
2022-09-28T00:08:50.421Z,1.30
2022-09-28T00:09:21.937Z,1.30
2022-09-28T00:09:54.062Z,1.30
2022-09-28T00:10:25.586Z,1.20
2022-09-28T00:10:57.644Z,1.23
2022-09-28T00:11:29.287Z,1.20
2022-09-28T00:12:01.117Z,1.20
2022-09-28T00:12:33.720Z,1.23
2022-09-28T00:13:06.873Z,1.20
2022-09-28T00:13:38.816Z,1.58
2022-09-28T00:14:11.036Z,1.30
2022-09-28T00:14:44.641Z,1.20
2022-09-28T00:15:16.589Z,1.30
2022-09-28T00:15:48.128Z,1.17
2022-09-28T00:16:22.466Z,1.40
2022-09-28T00:16:54.101Z,1.30
2022-09-28T00:17:26.527Z,1.48
2022-09-28T00:17:58.083Z,1.10
2022-09-28T00:18:30.062Z,1.15
2022-09-28T00:19:03.062Z,1.38
2022-09-28T00:19:34.701Z,1.40
2022-09-28T00:20:06.489Z,1.10
2022-09-28T00:20:38.014Z,1.70
2022-09-28T00:21:12.930Z,1.23
2022-09-28T00:21:44.456Z,1.52
2022-09-28T00:22:15.966Z,1.00
2022-09-28T00:22:47.475Z,1.40
2022-09-28T00:23:18.984Z,1.30
2022-09-28T00:24:15.349Z,1.37
2022-09-28T00:24:47.437Z,1.27
2022-09-28T00:25:21.961Z,1.40
2022-09-28T00:25:53.546Z,1.20
2022-09-28T00:26:26.248Z,1.30
2022-09-28T00:27:01.443Z,1.20
2022-09-28T00:27:32.979Z,1.48
2022-09-28T00:28:05.196Z,1.25
2022-09-28T00:28:36.685Z,1.30
2022-09-28T00:29:20.870Z,1.20
2022-09-28T00:29:52.362Z,1.20
2022-09-28T00:30:23.879Z,1.38
2022-09-28T00:30:56.394Z,1.13
2022-09-28T00:31:31.651Z,1.33
2022-09-28T00:32:10.738Z,1.20
2022-09-28T00:32:42.396Z,1.20
2022-09-28T00:33:13.902Z,1.25
2022-09-28T00:33:45.675Z,1.48
2022-09-28T00:34:17.286Z,1.65
2022-09-28T00:34:49.301Z,1.10
2022-09-28T00:35:20.822Z,1.30
2022-09-28T00:35:58.935Z,1.20
2022-09-28T00:36:32.157Z,1.33
2022-09-28T00:37:05.609Z,1.23
2022-09-28T00:37:37.106Z,1.30
2022-09-28T00:38:09.449Z,1.10
2022-09-28T00:38:40.983Z,1.17
2022-09-28T00:39:14.599Z,1.20
2022-09-28T00:39:47.950Z,1.30
2022-09-28T00:40:19.575Z,1.17
2022-09-28T00:40:51.129Z,1.20
2022-09-28T00:41:27.595Z,1.35
2022-09-28T00:41:59.644Z,1.30
2022-09-28T00:42:31.153Z,1.40
2022-09-28T00:43:18.509Z,1.40
2022-09-28T00:43:50.237Z,1.30
2022-09-28T00:44:24.488Z,1.27
2022-09-28T00:44:59.579Z,1.20
2022-09-28T00:45:31.475Z,1.20
2022-09-28T00:46:09.409Z,1.08
2022-09-28T00:46:41.549Z,1.20
2022-09-28T00:47:49.507Z,1.10
2022-09-28T00:48:21.094Z,1.52
2022-09-28T00:49:03.114Z,1.40
2022-09-28T00:49:45.253Z,1.27
2022-09-28T00:50:22.689Z,1.30
2022-09-28T00:50:56.930Z,1.20
2022-09-28T00:51:29.916Z,1.20
2022-09-28T00:52:02.990Z,1.30
2022-09-28T00:52:49.695Z,1.30
2022-09-28T00:53:29.756Z,1.42
2022-09-28T00:54:03.399Z,1.25
2022-09-28T00:54:35.784Z,1.13
2022-09-28T00:55:11.624Z,1.20
2022-09-28T00:55:48.406Z,1.30
2022-09-28T00:56:25.140Z,1.30
2022-09-28T00:56:57.852Z,1.20
2022-09-28T00:57:30.657Z,1.40
2022-09-28T00:58:05.414Z,1.33
2022-09-28T00:58:42.568Z,1.23
2022-09-28T00:59:15.633Z,1.48
2022-09-28T00:59:47.403Z,1.02
2022-09-28T01:00:19.446Z,1.05
2022-09-28T01:00:51.107Z,1.27
2022-09-28T01:01:22.809Z,1.30
2022-09-28T01:01:54.592Z,1.25
2022-09-28T01:02:26.493Z,1.45
2022-09-28T01:02:59.652Z,1.35
2022-09-28T01:03:33.309Z,1.55
2022-09-28T01:04:06.008Z,1.15
2022-09-28T01:04:38.757Z,1.50
2022-09-28T01:05:11.719Z,1.30
2022-09-28T01:05:44.987Z,1.52
2022-09-28T01:06:22.962Z,1.58
2022-09-28T01:06:55.955Z,1.40
2022-09-28T01:07:27.670Z,1.42
2022-09-28T01:07:59.525Z,1.70
2022-09-28T01:08:33.197Z,1.80
2022-09-28T01:09:09.854Z,1.40
2022-09-28T01:09:41.772Z,1.55
2022-09-28T01:10:14.594Z,1.52
2022-09-28T01:10:46.191Z,2.22
2022-09-28T01:11:18.946Z,1.75
2022-09-28T01:11:50.495Z,1.40
2022-09-28T01:12:22.056Z,1.63
2022-09-28T01:12:55.588Z,1.77
2022-09-28T01:13:28.040Z,1.70
2022-09-28T01:14:00.104Z,1.77
2022-09-28T01:14:31.688Z,1.58
2022-09-28T01:15:04.806Z,1.63
2022-09-28T01:16:00.177Z,1.77
2022-09-28T01:16:57.640Z,1.63
2022-09-28T01:17:58.612Z,1.70
2022-09-28T01:18:47.448Z,1.40
2022-09-28T01:19:42.242Z,1.50
2022-09-28T01:20:35.415Z,1.85
2022-09-28T01:21:21.196Z,1.83
2022-09-28T01:22:04.280Z,1.77
2022-09-28T01:22:54.454Z,1.70
2022-09-28T01:24:00.276Z,1.67
2022-09-28T01:24:48.262Z,1.50
2022-09-28T01:25:27.936Z,1.40
2022-09-28T01:26:30.566Z,1.98
2022-09-28T01:27:13.983Z,1.90
2022-09-28T01:27:51.596Z,1.90
2022-09-28T01:28:28.917Z,1.65
2022-09-28T01:29:28.831Z,1.80
2022-09-28T01:30:07.872Z,1.70
2022-09-28T01:30:46.011Z,1.33
2022-09-28T01:31:18.902Z,1.65
2022-09-28T01:31:56.716Z,1.70
2022-09-28T01:32:55.423Z,1.77
2022-09-28T01:33:48.810Z,2.10
2022-09-28T01:34:28.738Z,1.48
2022-09-28T01:35:07.292Z,1.50
2022-09-28T01:35:47.676Z,1.73
2022-09-28T01:36:38.785Z,1.70
2022-09-28T01:37:14.012Z,1.60
2022-09-28T01:38:09.462Z,1.70
2022-09-28T01:38:46.452Z,1.40
2022-09-28T01:39:33.992Z,1.48
2022-09-28T01:40:09.415Z,1.83
2022-09-28T01:40:41.943Z,1.67
2022-09-28T01:41:14.191Z,1.70
2022-09-28T01:41:51.282Z,1.60
2022-09-28T01:42:28.588Z,1.60
2022-09-28T01:43:08.650Z,1.67
2022-09-28T01:43:44.113Z,1.77
2022-09-28T01:44:19.798Z,1.90
2022-09-28T01:44:55.554Z,1.85
2022-09-28T01:45:32.551Z,1.60
2022-09-28T01:46:12.202Z,2.05
2022-09-28T01:46:48.228Z,1.65
2022-09-28T01:47:22.859Z,1.90
2022-09-28T01:48:00.035Z,1.67
2022-09-28T01:48:37.862Z,1.60
2022-09-28T01:49:14.827Z,1.60
2022-09-28T01:49:52.166Z,1.77
2022-09-28T01:50:26.354Z,1.80
2022-09-28T01:51:02.005Z,1.70
2022-09-28T01:51:51.088Z,1.80
2022-09-28T01:52:33.688Z,1.70
2022-09-28T01:53:20.538Z,1.77
2022-09-28T01:53:56.036Z,1.80
2022-09-28T01:54:36.910Z,1.60
2022-09-28T01:55:18.507Z,1.63
2022-09-28T01:55:57.165Z,1.75
2022-09-28T01:56:38.304Z,1.58
2022-09-28T01:57:17.546Z,2.13
2022-09-28T01:58:00.955Z,1.40
2022-09-28T01:58:56.767Z,1.80
2022-09-28T01:59:32.197Z,1.55
2022-09-28T02:00:12.610Z,1.67
2022-09-28T02:01:29.818Z,1.48
2022-09-28T02:02:10.156Z,1.85
2022-09-28T02:02:54.620Z,1.70
2022-09-28T02:03:34.805Z,1.50
2022-09-28T02:04:18.756Z,1.77
2022-09-28T02:04:52.342Z,1.70
2022-09-28T02:05:30.035Z,1.75
2022-09-28T02:06:08.290Z,1.40
2022-09-28T02:07:27.028Z,1.50
2022-09-28T02:08:07.283Z,1.80
2022-09-28T02:09:02.246Z,1.42
2022-09-28T02:09:45.926Z,1.60
2022-09-28T02:10:22.522Z,1.95
2022-09-28T02:11:12.732Z,1.40
2022-09-28T02:11:49.418Z,1.65
2022-09-28T02:12:44.541Z,1.42
2022-09-28T02:13:25.060Z,1.50
2022-09-28T02:14:03.064Z,1.40
2022-09-28T02:14:36.457Z,1.60
2022-09-28T02:15:22.045Z,1.58
2022-09-28T02:16:07.096Z,1.40
2022-09-28T02:16:47.769Z,1.48
2022-09-28T02:17:19.746Z,1.58
2022-09-28T02:17:51.869Z,1.30
2022-09-28T02:18:23.403Z,1.30
2022-09-28T02:18:55.014Z,1.35
2022-09-28T02:19:28.492Z,1.20
2022-09-28T02:20:00.143Z,1.65
2022-09-28T02:20:34.374Z,1.70
2022-09-28T02:21:38.743Z,1.50
2022-09-28T02:22:28.532Z,1.40
2022-09-28T02:23:02.982Z,1.30
2022-09-28T02:23:39.956Z,1.50
2022-09-28T02:24:24.572Z,1.27
2022-09-28T02:25:01.330Z,1.52
2022-09-28T02:25:41.656Z,1.38
2022-09-28T02:26:17.061Z,1.13
2022-09-28T02:26:50.677Z,1.02
2022-09-28T02:27:31.189Z,1.20
2022-09-28T02:28:06.060Z,1.50
2022-09-28T02:28:37.609Z,1.20
2022-09-28T02:29:09.152Z,1.17
2022-09-28T02:29:40.666Z,1.20
2022-09-28T02:30:12.475Z,1.30
2022-09-28T02:30:44.875Z,1.30
2022-09-28T02:31:16.533Z,1.05
2022-09-28T02:31:48.091Z,1.15
2022-09-28T02:32:20.297Z,1.20
2022-09-28T02:32:56.822Z,1.10
2022-09-28T02:33:36.797Z,1.00
2022-09-28T02:34:09.523Z,1.00
2022-09-28T02:34:41.057Z,1.13
2022-09-28T02:35:15.530Z,1.30
2022-09-28T02:35:47.470Z,1.13
2022-09-28T02:36:19.114Z,1.27
2022-09-28T02:36:50.672Z,1.15
2022-09-28T02:37:22.366Z,1.10
2022-09-28T02:37:55.088Z,1.08
2022-09-28T02:38:26.870Z,1.00
2022-09-28T02:38:58.623Z,1.02
2022-09-28T02:39:30.162Z,1.13
2022-09-28T02:40:02.092Z,1.00
2022-09-28T02:40:36.185Z,0.93
2022-09-28T02:41:35.193Z,1.08
2022-09-28T02:42:19.935Z,1.00
2022-09-28T02:43:18.593Z,1.00
2022-09-28T02:44:06.118Z,1.23
2022-09-28T02:44:48.966Z,1.10
2022-09-28T02:45:25.849Z,1.13
2022-09-28T02:46:32.683Z,1.10
2022-09-28T02:47:15.775Z,1.20
2022-09-28T02:48:06.026Z,0.80
2022-09-28T02:49:20.190Z,1.00
2022-09-28T02:49:52.203Z,1.00
2022-09-28T02:50:51.493Z,1.00
2022-09-28T02:51:48.939Z,1.10
2022-09-28T02:52:55.770Z,1.10
2022-09-28T02:53:39.290Z,1.10
2022-09-28T02:54:27.761Z,1.10
2022-09-28T02:55:33.160Z,0.93
2022-09-28T02:56:32.508Z,1.10
2022-09-28T02:57:07.047Z,1.00
2022-09-28T02:57:38.532Z,0.95
2022-09-28T02:58:36.283Z,1.17
2022-09-28T02:59:19.956Z,1.10
2022-09-28T03:00:12.051Z,1.08
2022-09-28T03:01:24.399Z,1.17
2022-09-28T03:02:14.180Z,1.00
2022-09-28T03:03:13.506Z,1.30
2022-09-28T03:03:57.693Z,1.30
2022-09-28T03:04:35.043Z,1.58
2022-09-28T03:05:14.398Z,1.30
2022-09-28T03:05:51.769Z,1.15
2022-09-28T03:06:31.940Z,1.50
2022-09-28T03:07:14.608Z,1.40
2022-09-28T03:08:20.288Z,1.40
2022-09-28T03:09:03.183Z,1.30
2022-09-28T03:09:39.220Z,1.40
2022-09-28T03:10:18.129Z,1.42
2022-09-28T03:11:02.501Z,1.10
2022-09-28T03:11:39.318Z,1.30
2022-09-28T03:12:14.457Z,1.40
2022-09-28T03:12:48.867Z,1.20
2022-09-28T03:13:20.859Z,1.20
2022-09-28T03:13:53.296Z,1.10
2022-09-28T03:14:25.164Z,1.30
2022-09-28T03:15:20.172Z,1.50
2022-09-28T03:15:51.802Z,1.50
2022-09-28T03:16:23.583Z,1.50
2022-09-28T03:16:55.162Z,1.50
2022-09-28T03:17:26.655Z,1.40
2022-09-28T03:17:58.725Z,1.30
2022-09-28T03:18:32.105Z,1.30
2022-09-28T03:19:03.604Z,1.33
2022-09-28T03:19:36.743Z,1.30
2022-09-28T03:20:10.034Z,1.67
2022-09-28T03:20:41.549Z,1.50
2022-09-28T03:21:15.010Z,1.30
2022-09-28T03:21:46.512Z,1.42
2022-09-28T03:22:18.021Z,1.48
2022-09-28T03:23:12.294Z,1.40
2022-09-28T03:23:42.210Z,1.10
2022-09-28T03:24:13.707Z,1.27
2022-09-28T03:24:45.186Z,1.40
2022-09-28T03:25:17.029Z,1.50
2022-09-28T03:25:48.520Z,1.33
2022-09-28T03:26:20.170Z,1.23
2022-09-28T03:26:51.765Z,1.40
2022-09-28T03:27:23.289Z,1.30
2022-09-28T03:27:54.775Z,1.35
2022-09-28T03:28:27.060Z,1.30
2022-09-28T03:28:58.555Z,1.52
2022-09-28T03:29:32.952Z,1.40
2022-09-28T03:30:05.171Z,1.25
2022-09-28T03:30:36.660Z,1.40
2022-09-28T03:31:08.484Z,1.40
2022-09-28T03:31:40.187Z,1.20
2022-09-28T03:32:11.722Z,1.17
2022-09-28T03:32:43.296Z,1.20
2022-09-28T03:33:14.788Z,1.50
2022-09-28T03:33:46.515Z,1.33
2022-09-28T03:34:18.044Z,1.27
2022-09-28T03:34:49.715Z,1.30
2022-09-28T03:35:21.198Z,1.40
2022-09-28T03:35:53.374Z,1.42
2022-09-28T03:36:24.885Z,1.58
2022-09-28T03:36:56.406Z,1.50
2022-09-28T03:37:28.808Z,1.40
2022-09-28T03:38:00.336Z,1.40
2022-09-28T03:38:31.969Z,1.50
2022-09-28T03:39:04.411Z,1.52
2022-09-28T03:39:36.328Z,1.20
2022-09-28T03:40:08.177Z,1.30
2022-09-28T03:40:39.987Z,1.55
2022-09-28T03:41:11.598Z,1.55
2022-09-28T03:41:43.310Z,0.98
2022-09-28T03:42:14.890Z,1.50
2022-09-28T03:42:46.736Z,1.48
2022-09-28T03:43:18.455Z,1.50
2022-09-28T03:43:50.001Z,1.80
2022-09-28T03:44:21.509Z,2.20
2022-09-28T03:44:52.998Z,2.00
2022-09-28T03:45:24.579Z,2.40
2022-09-28T03:45:58.352Z,1.65
2022-09-28T03:46:29.930Z,1.80
2022-09-28T03:47:01.439Z,1.73
2022-09-28T03:47:32.951Z,1.60
2022-09-28T03:48:04.569Z,1.40
2022-09-28T03:48:36.496Z,1.63
2022-09-28T03:49:09.913Z,1.60
2022-09-28T03:49:41.795Z,1.85
2022-09-28T03:50:14.252Z,1.65
2022-09-28T03:50:45.817Z,1.90
2022-09-28T03:51:17.486Z,1.40
2022-09-28T03:51:48.978Z,1.77
2022-09-28T03:52:20.490Z,1.45
2022-09-28T03:52:51.983Z,1.77
2022-09-28T03:53:23.930Z,1.30
2022-09-28T03:53:55.487Z,1.63
2022-09-28T03:54:26.985Z,1.50
2022-09-28T03:54:58.710Z,1.90
2022-09-28T03:55:30.521Z,1.25
2022-09-28T03:56:07.369Z,1.40
2022-09-28T03:56:38.962Z,1.70
2022-09-28T03:57:10.463Z,1.63
2022-09-28T03:57:41.961Z,1.70
2022-09-28T03:58:13.497Z,1.70
2022-09-28T03:58:44.983Z,1.52
2022-09-28T03:59:16.654Z,1.70
2022-09-28T03:59:48.200Z,1.65
2022-09-28T04:00:19.895Z,1.73
2022-09-28T04:00:51.709Z,1.50
2022-09-28T04:01:23.307Z,1.65
2022-09-28T04:01:55.003Z,1.80
2022-09-28T04:02:26.652Z,1.80
2022-09-28T04:02:58.181Z,1.55
2022-09-28T04:03:29.760Z,1.75
2022-09-28T04:04:01.543Z,2.00
2022-09-28T04:04:33.065Z,1.80
2022-09-28T04:05:04.802Z,1.80
2022-09-28T04:05:36.388Z,1.83
2022-09-28T04:06:07.920Z,1.67
2022-09-28T04:06:39.778Z,1.80
2022-09-28T04:07:11.278Z,1.60
2022-09-28T04:07:42.766Z,1.48
2022-09-28T04:08:14.283Z,1.80
2022-09-28T04:08:45.812Z,1.60
2022-09-28T04:09:17.397Z,1.50
2022-09-28T04:09:48.937Z,1.40
2022-09-28T04:10:20.426Z,1.67
2022-09-28T04:10:52.272Z,1.40
2022-09-28T04:11:24.259Z,1.50
2022-09-28T04:12:03.985Z,1.50
2022-09-28T04:12:35.912Z,1.52
2022-09-28T04:13:07.401Z,1.38
2022-09-28T04:13:39.312Z,1.40
2022-09-28T04:14:10.810Z,1.60
2022-09-28T04:14:42.306Z,1.45
2022-09-28T04:15:13.945Z,1.50
2022-09-28T04:15:53.397Z,1.60
2022-09-28T04:16:25.082Z,1.35
2022-09-28T04:16:56.633Z,1.60
2022-09-28T04:17:28.120Z,1.50
2022-09-28T04:17:59.621Z,1.50
2022-09-28T04:18:32.633Z,1.50
2022-09-28T04:19:04.587Z,1.35
2022-09-28T04:19:36.118Z,1.60
2022-09-28T04:20:08.565Z,1.48
2022-09-28T04:20:41.521Z,1.58
2022-09-28T04:21:19.422Z,1.50
2022-09-28T04:21:51.888Z,1.58
2022-09-28T04:22:23.410Z,1.50
2022-09-28T04:22:55.455Z,1.20
2022-09-28T04:23:28.144Z,1.52
2022-09-28T04:23:59.650Z,1.67
2022-09-28T04:24:31.215Z,1.45
2022-09-28T04:25:02.747Z,1.40
2022-09-28T04:25:34.263Z,1.40
2022-09-28T04:26:08.352Z,1.52
2022-09-28T04:26:39.938Z,1.58
2022-09-28T04:27:30.072Z,1.52
2022-09-28T04:28:20.285Z,1.30
2022-09-28T04:29:10.539Z,1.38
2022-09-28T04:29:44.121Z,1.30
2022-09-28T04:30:16.413Z,1.50
2022-09-28T04:30:47.928Z,1.30
2022-09-28T04:31:24.450Z,1.50
2022-09-28T04:31:56.256Z,1.40
2022-09-28T04:32:27.846Z,1.60
2022-09-28T04:32:59.333Z,1.60
2022-09-28T04:33:31.665Z,1.10
2022-09-28T04:34:03.157Z,1.33
2022-09-28T04:34:37.235Z,1.42
2022-09-28T04:35:11.960Z,1.52
2022-09-28T04:35:43.539Z,1.52
2022-09-28T04:36:15.120Z,1.60
2022-09-28T04:36:47.709Z,1.70
2022-09-28T04:37:19.221Z,1.55
2022-09-28T04:37:50.745Z,1.50
2022-09-28T04:38:35.849Z,1.60
2022-09-28T04:39:15.114Z,1.67
2022-09-28T04:39:48.552Z,1.60
2022-09-28T04:40:20.328Z,1.75
2022-09-28T04:40:51.950Z,1.70
2022-09-28T04:41:23.658Z,1.67
2022-09-28T04:41:55.151Z,1.70
2022-09-28T04:42:26.643Z,1.90
2022-09-28T04:42:58.225Z,1.60
2022-09-28T04:43:29.743Z,1.90
2022-09-28T04:44:01.625Z,1.80
2022-09-28T04:44:33.136Z,1.52
2022-09-28T04:45:05.245Z,5.78
2022-09-28T04:45:36.776Z,2.42
2022-09-28T04:46:10.640Z,1.65
2022-09-28T04:46:42.219Z,1.60
2022-09-28T04:47:13.721Z,2.20
2022-09-28T04:47:45.274Z,1.77
2022-09-28T04:48:17.376Z,1.63
2022-09-28T04:48:48.903Z,1.95
2022-09-28T04:49:20.409Z,1.55
2022-09-28T04:49:51.970Z,1.70
2022-09-28T04:50:23.472Z,1.42
2022-09-28T04:50:56.439Z,1.77
2022-09-28T04:51:31.025Z,1.70
2022-09-28T04:52:02.589Z,1.38
2022-09-28T04:52:36.526Z,1.77
2022-09-28T04:53:08.050Z,1.87
2022-09-28T04:53:39.709Z,1.60
2022-09-28T04:54:11.222Z,1.85
2022-09-28T04:54:42.775Z,1.90
2022-09-28T04:55:14.628Z,1.70
2022-09-28T04:55:55.606Z,1.67
2022-09-28T04:56:27.121Z,1.85
2022-09-28T04:56:58.914Z,1.30
2022-09-28T04:57:30.405Z,1.73
2022-09-28T04:58:04.394Z,1.50
2022-09-28T04:58:36.159Z,1.52
2022-09-28T04:59:07.760Z,1.30
2022-09-28T04:59:39.272Z,1.83
2022-09-28T05:00:12.133Z,1.55
2022-09-28T05:00:43.636Z,1.50
2022-09-28T05:01:18.272Z,1.50
2022-09-28T05:01:49.879Z,1.75
2022-09-28T05:02:21.539Z,1.33
2022-09-28T05:02:53.998Z,1.52
2022-09-28T05:03:26.313Z,1.73
2022-09-28T05:03:57.835Z,1.45
2022-09-28T05:04:30.669Z,1.63
2022-09-28T05:05:02.214Z,1.80
2022-09-28T05:05:33.707Z,1.75
2022-09-28T05:06:06.955Z,2.00
2022-09-28T05:06:38.449Z,1.67
2022-09-28T05:07:10.081Z,2.15
2022-09-28T05:07:41.954Z,1.80
2022-09-28T05:08:13.705Z,2.00
2022-09-28T05:08:46.862Z,1.80
2022-09-28T05:09:18.571Z,1.90
2022-09-28T05:09:50.422Z,1.88
2022-09-28T05:10:21.949Z,1.88
2022-09-28T05:11:06.105Z,1.65
2022-09-28T05:11:37.626Z,2.03
2022-09-28T05:12:09.715Z,1.85
2022-09-28T05:12:41.207Z,2.08
2022-09-28T05:13:14.049Z,1.80
2022-09-28T05:13:45.889Z,2.00
2022-09-28T05:14:17.450Z,1.67
2022-09-28T05:14:49.037Z,1.80
2022-09-28T05:15:20.521Z,1.88
2022-09-28T05:15:58.107Z,2.17
2022-09-28T05:16:33.774Z,2.15
2022-09-28T05:17:05.724Z,2.10
2022-09-28T05:17:37.223Z,2.00
2022-09-28T05:18:09.010Z,2.13
2022-09-28T05:18:40.613Z,1.85
2022-09-28T05:19:12.511Z,1.88
2022-09-28T05:19:44.043Z,1.75
2022-09-28T05:20:15.629Z,2.05
2022-09-28T05:20:47.305Z,1.63
2022-09-28T05:21:20.097Z,2.13
2022-09-28T05:21:51.614Z,2.30
2022-09-28T05:22:23.193Z,2.10
2022-09-28T05:22:54.754Z,2.08
2022-09-28T05:23:26.264Z,1.88
2022-09-28T05:23:58.341Z,2.15
2022-09-28T05:24:30.601Z,2.15
2022-09-28T05:25:02.934Z,2.13
2022-09-28T05:25:34.438Z,2.37
2022-09-28T05:26:06.334Z,2.10
2022-09-28T05:26:37.946Z,2.40
2022-09-28T05:27:09.465Z,2.38
2022-09-28T05:27:40.944Z,2.25
2022-09-28T05:28:12.609Z,2.20
2022-09-28T05:28:44.710Z,2.13
2022-09-28T05:29:16.248Z,1.90
2022-09-28T05:29:47.911Z,1.92
2022-09-28T05:30:19.477Z,2.30
2022-09-28T05:30:51.017Z,2.08
2022-09-28T05:31:22.561Z,2.22
2022-09-28T05:31:54.156Z,2.25
2022-09-28T05:32:25.732Z,2.85
2022-09-28T05:32:57.298Z,2.90
2022-09-28T05:33:29.172Z,2.53
2022-09-28T05:34:00.658Z,2.30
2022-09-28T05:34:32.179Z,2.28
2022-09-28T05:35:06.270Z,3.33
2022-09-28T05:35:37.801Z,2.63
2022-09-28T05:36:12.913Z,2.50
2022-09-28T05:36:45.736Z,2.22
2022-09-28T05:37:17.267Z,2.40
2022-09-28T05:37:49.438Z,2.90
2022-09-28T05:38:20.986Z,2.67
2022-09-28T05:38:52.526Z,2.40
2022-09-28T05:39:24.028Z,2.65
2022-09-28T05:39:55.526Z,2.30
2022-09-28T05:40:27.067Z,2.53
2022-09-28T05:40:59.720Z,2.40
2022-09-28T05:41:33.638Z,2.22
2022-09-28T05:42:05.199Z,2.42
2022-09-28T05:42:36.748Z,2.85
2022-09-28T05:43:08.245Z,2.83
2022-09-28T05:43:39.752Z,2.30
2022-09-28T05:44:11.339Z,2.28
2022-09-28T05:44:43.166Z,2.60
2022-09-28T05:45:15.150Z,2.50
2022-09-28T05:45:47.835Z,2.67
2022-09-28T05:46:23.707Z,2.28
2022-09-28T05:46:55.429Z,2.28
2022-09-28T05:47:27.386Z,1.95
2022-09-28T05:47:58.933Z,2.45
2022-09-28T05:48:30.576Z,2.50
2022-09-28T05:49:02.253Z,2.45
2022-09-28T05:49:33.746Z,2.65
2022-09-28T05:50:06.830Z,2.70
2022-09-28T05:50:38.332Z,2.45
2022-09-28T05:51:10.342Z,2.33
2022-09-28T05:51:41.848Z,2.20
2022-09-28T05:52:14.139Z,1.90
2022-09-28T05:52:45.832Z,2.20
2022-09-28T05:53:17.342Z,2.50
2022-09-28T05:53:48.869Z,2.58
2022-09-28T05:54:20.474Z,2.22
2022-09-28T05:54:52.118Z,2.60
2022-09-28T05:55:23.700Z,2.10
2022-09-28T05:55:59.371Z,2.20
2022-09-28T05:56:31.687Z,2.20
2022-09-28T05:57:05.952Z,2.17
2022-09-28T05:57:37.514Z,2.47
2022-09-28T05:58:09.212Z,2.00
2022-09-28T05:58:40.771Z,2.45
2022-09-28T05:59:13.426Z,2.47
2022-09-28T05:59:45.038Z,1.90
2022-09-28T06:00:16.633Z,1.90
2022-09-28T06:00:57.584Z,2.03
2022-09-28T06:01:29.211Z,2.20
2022-09-28T06:02:00.994Z,2.20
2022-09-28T06:02:32.574Z,1.80
2022-09-28T06:03:09.220Z,2.08
2022-09-28T06:03:41.098Z,2.00
2022-09-28T06:04:14.617Z,2.30
2022-09-28T06:04:48.268Z,1.90
2022-09-28T06:05:19.766Z,1.80
2022-09-28T06:05:51.725Z,1.75
2022-09-28T06:06:23.249Z,2.30
2022-09-28T06:06:55.221Z,2.08
2022-09-28T06:07:26.814Z,2.03
2022-09-28T06:07:59.453Z,1.95
2022-09-28T06:08:32.801Z,1.80
2022-09-28T06:09:04.497Z,2.30
2022-09-28T06:09:36.073Z,2.38
2022-09-28T06:10:07.935Z,2.05
2022-09-28T06:10:40.916Z,1.67
2022-09-28T06:11:12.588Z,1.80
2022-09-28T06:11:44.186Z,2.00
2022-09-28T06:12:16.096Z,1.60
2022-09-28T06:12:48.648Z,2.00
2022-09-28T06:13:20.713Z,1.50
2022-09-28T06:13:57.902Z,2.00
2022-09-28T06:14:29.406Z,1.70
2022-09-28T06:15:01.309Z,1.75
2022-09-28T06:15:35.245Z,1.58
2022-09-28T06:16:11.457Z,1.50
2022-09-28T06:16:44.040Z,1.75
2022-09-28T06:17:15.741Z,1.55
2022-09-28T06:17:47.593Z,2.00
2022-09-28T06:18:19.323Z,1.85
2022-09-28T06:18:50.836Z,1.60
2022-09-28T06:19:22.333Z,1.90
2022-09-28T06:19:53.868Z,1.40
2022-09-28T06:20:27.445Z,1.70
2022-09-28T06:20:59.153Z,1.80
2022-09-28T06:21:30.648Z,1.48
2022-09-28T06:22:02.300Z,1.75
2022-09-28T06:22:33.808Z,1.58
2022-09-28T06:23:05.336Z,1.75
2022-09-28T06:23:36.873Z,2.00
2022-09-28T06:24:08.571Z,1.60
2022-09-28T06:24:40.139Z,1.67
2022-09-28T06:25:11.631Z,1.60
2022-09-28T06:25:43.604Z,1.60
2022-09-28T06:26:15.149Z,1.60
2022-09-28T06:26:46.641Z,1.40
2022-09-28T06:27:18.155Z,1.13
2022-09-28T06:27:59.554Z,1.65
2022-09-28T06:28:31.117Z,1.60
2022-09-28T06:29:03.532Z,1.20
2022-09-28T06:29:35.045Z,1.20
2022-09-28T06:30:07.029Z,1.30
2022-09-28T06:30:39.144Z,1.38
2022-09-28T06:31:10.923Z,1.40
2022-09-28T06:31:42.589Z,1.20
2022-09-28T06:32:14.123Z,1.58
2022-09-28T06:32:45.640Z,1.42
2022-09-28T06:33:17.157Z,1.30
2022-09-28T06:33:51.925Z,1.35
2022-09-28T06:34:24.786Z,1.20
2022-09-28T06:34:57.012Z,1.35
2022-09-28T06:35:30.618Z,1.43
2022-09-28T06:36:02.111Z,1.52
2022-09-28T06:36:33.864Z,1.52
2022-09-28T06:37:05.373Z,1.23
2022-09-28T06:37:36.929Z,1.63
2022-09-28T06:38:08.988Z,1.75
2022-09-28T06:38:40.472Z,2.10
2022-09-28T06:39:11.960Z,2.17
2022-09-28T06:39:43.458Z,2.90
2022-09-28T06:40:15.546Z,2.92
2022-09-28T06:40:47.088Z,3.80
2022-09-28T06:41:18.615Z,3.15
2022-09-28T06:41:50.094Z,2.72
2022-09-28T06:42:22.067Z,3.58
2022-09-28T06:42:58.608Z,3.00
2022-09-28T06:43:34.258Z,3.10
2022-09-28T06:44:06.034Z,2.90
2022-09-28T06:44:37.640Z,2.88
2022-09-28T06:45:10.706Z,2.78
2022-09-28T06:45:43.267Z,3.00
2022-09-28T06:46:15.318Z,2.60
2022-09-28T06:46:46.840Z,3.10
2022-09-28T06:47:18.472Z,2.20
2022-09-28T06:47:57.457Z,2.63
2022-09-28T06:48:28.964Z,2.70
2022-09-28T06:49:00.505Z,2.45
2022-09-28T06:49:32.001Z,2.42
2022-09-28T06:50:11.025Z,2.05
2022-09-28T06:50:42.954Z,2.20
2022-09-28T06:51:14.642Z,2.50
2022-09-28T06:51:46.188Z,2.63
2022-09-28T06:52:17.678Z,2.35
2022-09-28T06:52:54.013Z,2.42
2022-09-28T06:53:27.180Z,2.20
2022-09-28T06:53:58.703Z,1.90
2022-09-28T06:54:30.226Z,1.80
2022-09-28T06:55:01.759Z,2.40
2022-09-28T06:55:33.330Z,2.13
2022-09-28T06:56:06.944Z,2.17
2022-09-28T06:56:38.435Z,1.70
2022-09-28T06:57:09.973Z,1.90
2022-09-28T06:57:41.511Z,1.75
2022-09-28T06:58:15.064Z,1.77
2022-09-28T06:58:47.289Z,2.03
2022-09-28T06:59:18.887Z,1.77
2022-09-28T06:59:50.417Z,1.60
2022-09-28T07:00:21.923Z,1.83
2022-09-28T07:00:59.325Z,2.20
2022-09-28T07:01:31.029Z,2.58
2022-09-28T07:02:02.773Z,2.55
2022-09-28T07:02:34.511Z,2.70
2022-09-28T07:03:09.166Z,2.38
2022-09-28T07:03:40.727Z,2.97
2022-09-28T07:04:12.244Z,2.88
2022-09-28T07:04:43.747Z,2.95
2022-09-28T07:05:15.273Z,2.55
2022-09-28T07:05:49.791Z,2.40
2022-09-28T07:06:24.076Z,2.72
2022-09-28T07:06:55.605Z,2.80
2022-09-28T07:07:27.115Z,2.22
2022-09-28T07:07:58.731Z,2.40
2022-09-28T07:08:30.263Z,2.47
2022-09-28T07:09:26.462Z,2.53
2022-09-28T07:09:57.843Z,2.22
2022-09-28T07:10:31.023Z,2.40
2022-09-28T07:11:06.333Z,1.80
2022-09-28T07:11:39.650Z,2.10
2022-09-28T07:12:13.209Z,2.58
2022-09-28T07:12:44.698Z,2.30
2022-09-28T07:13:45.686Z,2.17
2022-09-28T07:14:18.383Z,2.43
2022-09-28T07:14:58.391Z,2.15
2022-09-28T07:15:30.901Z,2.22
2022-09-28T07:16:02.430Z,2.40
2022-09-28T07:16:59.570Z,2.58
2022-09-28T07:17:25.529Z,2.17
2022-09-28T07:18:03.797Z,2.17
2022-09-28T07:18:35.702Z,2.67
2022-09-28T07:19:07.319Z,2.47
2022-09-28T07:19:38.818Z,1.98
2022-09-28T07:20:18.400Z,2.10
2022-09-28T07:20:54.446Z,4.88
2022-09-28T07:21:30.197Z,3.22
2022-09-28T07:22:05.402Z,2.15
2022-09-28T07:22:42.868Z,2.40
2022-09-28T07:23:19.470Z,1.83
2022-09-28T07:23:54.270Z,1.95
2022-09-28T07:24:26.012Z,2.13
2022-09-28T07:24:58.398Z,1.50
2022-09-28T07:25:31.518Z,1.40
2022-09-28T07:26:07.792Z,1.60
2022-09-28T07:26:40.511Z,1.77
2022-09-28T07:27:12.035Z,1.70
2022-09-28T07:27:43.574Z,1.80
2022-09-28T07:28:16.423Z,1.70
2022-09-28T07:28:47.928Z,1.90
2022-09-28T07:29:19.432Z,2.13
2022-09-28T07:29:52.972Z,1.50
2022-09-28T07:30:26.647Z,2.20
2022-09-28T07:30:58.337Z,2.00
2022-09-28T07:31:29.964Z,2.30
2022-09-28T07:32:01.738Z,2.20
2022-09-28T07:32:37.137Z,2.17
2022-09-28T07:33:10.858Z,1.90
2022-09-28T07:33:42.442Z,1.80
2022-09-28T07:34:13.989Z,1.70
2022-09-28T07:34:45.604Z,2.03
2022-09-28T07:35:17.254Z,1.75
2022-09-28T07:35:55.662Z,1.70
2022-09-28T07:36:27.232Z,1.40
2022-09-28T07:36:59.642Z,1.70
2022-09-28T07:37:31.256Z,1.65
2022-09-28T07:38:07.166Z,1.67
2022-09-28T07:38:38.691Z,1.58
2022-09-28T07:39:11.636Z,1.70
2022-09-28T07:40:01.734Z,1.65
2022-09-28T07:40:54.283Z,1.95
2022-09-28T07:41:32.584Z,1.85
2022-09-28T07:42:04.140Z,1.98
2022-09-28T07:42:36.261Z,1.60
2022-09-28T07:43:08.390Z,2.10
2022-09-28T07:43:41.028Z,2.03
2022-09-28T07:44:12.517Z,1.88
2022-09-28T07:44:44.017Z,2.00
2022-09-28T07:45:15.618Z,2.67
2022-09-28T07:45:56.349Z,2.10